Al Hamla — V7MX9 — position and weather

sailwx.info

Track history (hours):
 
Tides and Currents Weather Stations Pressure Air Temp Water Temp Dewpoint Dewpoint Depression Visibility Wind Speed Wind Dir Waves Ship Positions

Al Hamla

Last reported at 2014-Sep-21 13:33 UTC. Time now 2014-Oct-01 08:17 UTC.
Position N 01°13' E 103°31'.
Warning: this ship's position is 9 days out of date.

Length 340 m; draft 9.7 m.

Type: Tanker. MMSI: 538002922.

Date/timePositionNaut miles runAvg speedWind from/ knotsBaromVisibWave heightAir tempDewpointWater temp
2014-Sep-21 13:33N 01°13' E 103°31'1010.4
2014-Sep-21 12:33N 01°11' E 103°41'1 0.5
2014-Sep-21 11:32N 01°12' E 103°40'0 0.0
2014-Sep-21 10:33N 01°12' E 103°40'0 0.0
2014-Sep-21 09:30N 01°12' E 103°40'0 0.0
2014-Sep-21 08:31N 01°12' E 103°40'0 0.0
2014-Sep-21 07:23N 01°12' E 103°40'0 0.0
2014-Sep-21 06:32N 01°12' E 103°40'0 0.2
2014-Sep-21 05:33N 01°12' E 103°41'0 0.1
2014-Sep-21 04:33N 01°12' E 103°41'0 0.0
2014-Sep-21 03:31N 01°12' E 103°41'0 0.0
2014-Sep-21 02:33N 01°12' E 103°41'0 0.0
2014-Sep-21 01:30N 01°12' E 103°41'0 0.0
2014-Sep-21 00:31N 01°12' E 103°41'0 0.0
2014-Sep-20 23:32N 01°12' E 103°41'0 0.1
2014-Sep-20 22:26N 01°12' E 103°41'0 0.0
2014-Sep-20 21:33N 01°12' E 103°41'0 0.0
2014-Sep-20 20:33N 01°12' E 103°41'0 0.0
2014-Sep-20 19:31N 01°12' E 103°41'0 0.0
2014-Sep-20 18:28N 01°12' E 103°41'0 0.0
2014-Sep-20 17:32N 01°12' E 103°41'0 0.0
2014-Sep-20 16:30N 01°12' E 103°41'0 0.0
2014-Sep-20 15:33N 01°12' E 103°41'0 0.0
2014-Sep-20 14:22N 01°12' E 103°41'0 0.1
2014-Sep-20 13:28N 01°12' E 103°41'0 0.0
2014-Sep-20 12:32N 01°12' E 103°41'0 0.1
2014-Sep-20 11:29N 01°12' E 103°41'0 0.3
2014-Sep-20 10:33N 01°12' E 103°40'0 0.1
2014-Sep-20 09:31N 01°12' E 103°40'0 0.1
2014-Sep-20 08:28N 01°12' E 103°40'0 0.0
2014-Sep-20 07:32N 01°12' E 103°40'0 0.0
2014-Sep-20 06:32N 01°12' E 103°40'0 0.0
2014-Sep-20 05:33N 01°12' E 103°40'0 0.2
2014-Sep-20 04:30N 01°12' E 103°40'3 3.2
2014-Sep-20 03:33N 01°10' E 103°42'7 7.0
2014-Sep-20 02:33N 01°11' E 103°49'1111.1
2014-Sep-20 01:33N 01°15' E 103°60'  
2014-Sep-15 06:13N 29°30' E 122°41'1014.6
2014-Sep-15 05:31N 29°38' E 122°34'1010.0
2014-Sep-15 04:33N 29°43' E 122°24'10 9.8
2014-Sep-15 03:33N 29°48' E 122°15'10 9.8
2014-Sep-15 02:33N 29°55' E 122°07'2 0.6
2014-Sep-14 23:15N 29°54' E 122°05'0 0.0
2014-Sep-14 18:12N 29°54' E 122°05'0 0.0
2014-Sep-14 15:32N 29°54' E 122°05'0 0.0
2014-Sep-14 13:09N 29°54' E 122°05'0 0.0
2014-Sep-14 12:22N 29°54' E 122°05'0 0.0
2014-Sep-14 11:22N 29°54' E 122°05'0 0.0
2014-Sep-14 10:11N 29°54' E 122°05'0 0.0
2014-Sep-14 09:12N 29°54' E 122°05'0 0.0
2014-Sep-14 02:05N 29°54' E 122°05'0 0.0
2014-Sep-13 20:08N 29°54' E 122°05'0 0.0
2014-Sep-13 19:33N 29°54' E 122°05'0 0.0
2014-Sep-13 16:11N 29°54' E 122°05'0 0.0
2014-Sep-13 15:29N 29°54' E 122°05'0 0.0
2014-Sep-13 14:12N 29°54' E 122°05'0 0.0
2014-Sep-13 13:31N 29°54' E 122°05'0 0.0
2014-Sep-13 10:21N 29°54' E 122°05'0 0.0
2014-Sep-13 09:22N 29°54' E 122°05'0 0.0
2014-Sep-13 08:22N 29°54' E 122°05'0 0.0
2014-Sep-13 06:33N 29°54' E 122°05'5 5.4
2014-Sep-13 05:33N 29°53' E 122°11'1111.1
2014-Sep-13 04:33N 29°44' E 122°20'10 9.8
2014-Sep-13 03:32N 29°41' E 122°31'5 5.2
2014-Sep-13 02:33N 29°39' E 122°36'5 4.6
2014-Sep-13 01:27N 29°34' E 122°37'30 3.4
2014-Sep-12 16:26N 29°19' E 123°07'  
Track history (hours):
 
Tides and Currents Weather Stations Pressure Air Temp Water Temp Dewpoint Dewpoint Depression Visibility Wind Speed Wind Dir Waves Ship Positions

Al Hamla

Last reported at 2014-Sep-21 13:33 UTC. Time now 2014-Oct-01 08:17 UTC.
Position N 01°13' E 103°31'.
Warning: this ship's position is 9 days out of date.

Length 340 m; draft 9.7 m.

Type: Tanker. MMSI: 538002922.

Date/timePositionNaut miles runAvg speedWind from/ knotsBaromVisibWave heightAir tempDewpointWater temp
2014-Sep-21 13:33N 01°13' E 103°31'1010.4
2014-Sep-21 12:33N 01°11' E 103°41'1 0.5
2014-Sep-21 11:32N 01°12' E 103°40'0 0.0
2014-Sep-21 10:33N 01°12' E 103°40'0 0.0
2014-Sep-21 09:30N 01°12' E 103°40'0 0.0
2014-Sep-21 08:31N 01°12' E 103°40'0 0.0
2014-Sep-21 07:23N 01°12' E 103°40'0 0.0
2014-Sep-21 06:32N 01°12' E 103°40'0 0.2
2014-Sep-21 05:33N 01°12' E 103°41'0 0.1
2014-Sep-21 04:33N 01°12' E 103°41'0 0.0
2014-Sep-21 03:31N 01°12' E 103°41'0 0.0
2014-Sep-21 02:33N 01°12' E 103°41'0 0.0
2014-Sep-21 01:30N 01°12' E 103°41'0 0.0
2014-Sep-21 00:31N 01°12' E 103°41'0 0.0
2014-Sep-20 23:32N 01°12' E 103°41'0 0.1
2014-Sep-20 22:26N 01°12' E 103°41'0 0.0
2014-Sep-20 21:33N 01°12' E 103°41'0 0.0
2014-Sep-20 20:33N 01°12' E 103°41'0 0.0
2014-Sep-20 19:31N 01°12' E 103°41'0 0.0
2014-Sep-20 18:28N 01°12' E 103°41'0 0.0
2014-Sep-20 17:32N 01°12' E 103°41'0 0.0
2014-Sep-20 16:30N 01°12' E 103°41'0 0.0
2014-Sep-20 15:33N 01°12' E 103°41'0 0.0
2014-Sep-20 14:22N 01°12' E 103°41'0 0.1
2014-Sep-20 13:28N 01°12' E 103°41'0 0.0
2014-Sep-20 12:32N 01°12' E 103°41'0 0.1
2014-Sep-20 11:29N 01°12' E 103°41'0 0.3
2014-Sep-20 10:33N 01°12' E 103°40'0 0.1
2014-Sep-20 09:31N 01°12' E 103°40'0 0.1
2014-Sep-20 08:28N 01°12' E 103°40'0 0.0
2014-Sep-20 07:32N 01°12' E 103°40'0 0.0
2014-Sep-20 06:32N 01°12' E 103°40'0 0.0
2014-Sep-20 05:33N 01°12' E 103°40'0 0.2
2014-Sep-20 04:30N 01°12' E 103°40'3 3.2
2014-Sep-20 03:33N 01°10' E 103°42'7 7.0
2014-Sep-20 02:33N 01°11' E 103°49'1111.1
2014-Sep-20 01:33N 01°15' E 103°60'  
2014-Sep-15 06:13N 29°30' E 122°41'1014.6
2014-Sep-15 05:31N 29°38' E 122°34'1010.0
2014-Sep-15 04:33N 29°43' E 122°24'10 9.8
2014-Sep-15 03:33N 29°48' E 122°15'10 9.8
2014-Sep-15 02:33N 29°55' E 122°07'2 0.6
2014-Sep-14 23:15N 29°54' E 122°05'0 0.0
2014-Sep-14 18:12N 29°54' E 122°05'0 0.0
2014-Sep-14 15:32N 29°54' E 122°05'0 0.0
2014-Sep-14 13:09N 29°54' E 122°05'0 0.0
2014-Sep-14 12:22N 29°54' E 122°05'0 0.0
2014-Sep-14 11:22N 29°54' E 122°05'0 0.0
2014-Sep-14 10:11N 29°54' E 122°05'0 0.0
2014-Sep-14 09:12N 29°54' E 122°05'0 0.0
2014-Sep-14 02:05N 29°54' E 122°05'0 0.0
2014-Sep-13 20:08N 29°54' E 122°05'0 0.0
2014-Sep-13 19:33N 29°54' E 122°05'0 0.0
2014-Sep-13 16:11N 29°54' E 122°05'0 0.0
2014-Sep-13 15:29N 29°54' E 122°05'0 0.0
2014-Sep-13 14:12N 29°54' E 122°05'0 0.0
2014-Sep-13 13:31N 29°54' E 122°05'0 0.0
2014-Sep-13 10:21N 29°54' E 122°05'0 0.0
2014-Sep-13 09:22N 29°54' E 122°05'0 0.0
2014-Sep-13 08:22N 29°54' E 122°05'0 0.0
2014-Sep-13 06:33N 29°54' E 122°05'5 5.4
2014-Sep-13 05:33N 29°53' E 122°11'1111.1
2014-Sep-13 04:33N 29°44' E 122°20'10 9.8
2014-Sep-13 03:32N 29°41' E 122°31'5 5.2
2014-Sep-13 02:33N 29°39' E 122°36'5 4.6
2014-Sep-13 01:27N 29°34' E 122°37'30 3.4
2014-Sep-12 16:26N 29°19' E 123°07'  

Dump ship's entire track history